Time;durP1;ratioP1;P1;durP2;ratioP2;P2;SDS_P1;SDS_P2;PMS_P1;PMS_P2;Temp;Humidity;BMP_temperature;BMP_pressure;BME280_temperature;BME280_humidity;BME280_pressure;Samples;Min_cycle;Max_cycle;Signal;HPM_P1;HPM_P2
2022/07/09 00:00:58;;;;;;;;;;;24.20;49.60;;;;;;5050086;28;19913;-62
2022/07/09 00:03:24;;;;;;;;;;;24.20;49.60;;;;;;5049234;28;20458;-62
2022/07/09 00:05:49;;;;;;;;;;;24.30;49.70;;;;;;5034042;28;19971;-62
2022/07/09 00:08:15;;;;;;;;;;;24.30;49.80;;;;;;5046834;28;20285;-62
2022/07/09 00:10:40;;;;;;;;;;;24.30;49.80;;;;;;5052362;28;20300;-62
2022/07/09 00:13:06;;;;;;;;;;;24.20;49.60;;;;;;5050520;28;20029;-62
2022/07/09 00:15:31;;;;;;;;;;;24.30;49.80;;;;;;5051535;28;19909;-62
2022/07/09 00:17:57;;;;;;;;;;;24.30;49.80;;;;;;5050700;28;19912;-62
2022/07/09 00:20:23;;;;;;;;;;;24.30;49.80;;;;;;5051473;28;19919;-61
2022/07/09 00:22:48;;;;;;;;;;;24.30;49.80;;;;;;5045630;28;19992;-62
2022/07/09 00:25:14;;;;;;;;;;;24.30;49.80;;;;;;5052713;28;19917;-62
2022/07/09 00:27:39;;;;;;;;;;;24.30;49.90;;;;;;5052354;28;20008;-62
2022/07/09 00:30:05;;;;;;;;;;;24.20;49.80;;;;;;5034920;28;19988;-62
2022/07/09 00:32:30;;;;;;;;;;;24.20;49.90;;;;;;5051514;28;19917;-63
2022/07/09 00:34:56;;;;;;;;;;;24.20;49.90;;;;;;5051273;28;19959;-62
2022/07/09 00:37:21;;;;;;;;;;;24.20;49.80;;;;;;5052175;28;19966;-62
2022/07/09 00:39:47;;;;;;;;;;;24.20;49.90;;;;;;5050699;28;19909;-62
2022/07/09 00:42:12;;;;;;;;;;;24.20;50.10;;;;;;5053254;28;20007;-62
2022/07/09 00:44:38;;;;;;;;;;;24.20;50.20;;;;;;5051203;28;19909;-62
2022/07/09 00:47:04;;;;;;;;;;;24.10;50.10;;;;;;5050557;28;19967;-62
2022/07/09 00:49:29;;;;;;;;;;;24.10;50.30;;;;;;5052239;28;19966;-62
2022/07/09 00:51:58;;;;;;;;;;;24.10;50.40;;;;;;5052274;28;19909;-62
2022/07/09 00:54:23;;;;;;;;;;;24.10;50.30;;;;;;5050891;28;19909;-62
2022/07/09 00:56:49;;;;;;;;;;;24.20;50.30;;;;;;5050661;28;19928;-62
2022/07/09 00:59:15;;;;;;;;;;;24.20;50.30;;;;;;5050625;28;20015;-62
2022/07/09 01:01:40;;;;;;;;;;;24.20;50.30;;;;;;5050058;28;19916;-62
2022/07/09 01:04:06;;;;;;;;;;;24.10;50.20;;;;;;5049848;28;19916;-62
2022/07/09 01:06:31;;;;;;;;;;;24.10;50.20;;;;;;5050403;28;19909;-62
2022/07/09 01:08:57;;;;;;;;;;;24.10;50.40;;;;;;5051970;28;19952;-62
2022/07/09 01:11:22;;;;;;;;;;;24.10;50.40;;;;;;5050114;28;19928;-62
2022/07/09 01:13:48;;;;;;;;;;;24.10;50.40;;;;;;5042774;28;19916;-61
2022/07/09 01:16:14;;;;;;;;;;;24.20;50.50;;;;;;5050408;28;19916;-62
2022/07/09 01:18:39;;;;;;;;;;;24.10;50.30;;;;;;5049866;28;19967;-63
2022/07/09 01:21:05;;;;;;;;;;;24.10;50.40;;;;;;5050757;28;19917;-62
2022/07/09 01:23:31;;;;;;;;;;;24.10;50.40;;;;;;5050920;28;19952;-62
2022/07/09 01:25:56;;;;;;;;;;;24.10;50.50;;;;;;5050548;28;20014;-62
2022/07/09 01:28:22;;;;;;;;;;;24.10;50.50;;;;;;5036222;28;19919;-62
2022/07/09 01:30:47;;;;;;;;;;;24.10;50.50;;;;;;5050699;28;19913;-62
2022/07/09 01:33:13;;;;;;;;;;;24.10;50.60;;;;;;5029179;28;19917;-62
2022/07/09 01:35:38;;;;;;;;;;;24.00;50.60;;;;;;5051601;28;19954;-62
2022/07/09 01:38:04;;;;;;;;;;;24.00;50.70;;;;;;5050499;28;20036;-62
2022/07/09 01:40:29;;;;;;;;;;;24.00;50.70;;;;;;5050351;28;19958;-62
2022/07/09 01:42:55;;;;;;;;;;;24.00;50.80;;;;;;5050174;28;19948;-62
2022/07/09 01:45:20;;;;;;;;;;;24.00;50.70;;;;;;5051617;28;19960;-62
2022/07/09 01:47:46;;;;;;;;;;;24.00;50.80;;;;;;5048945;28;19916;-62
2022/07/09 01:50:11;;;;;;;;;;;24.10;50.80;;;;;;5050439;28;19957;-62
2022/07/09 01:52:37;;;;;;;;;;;24.10;50.90;;;;;;5031438;28;19954;-61
2022/07/09 01:55:02;;;;;;;;;;;24.10;50.80;;;;;;5030499;28;19932;-62
2022/07/09 01:57:28;;;;;;;;;;;24.10;50.70;;;;;;5044742;28;19913;-62
2022/07/09 01:59:53;;;;;;;;;;;24.00;50.90;;;;;;5051357;28;19916;-62
2022/07/09 02:02:19;;;;;;;;;;;24.00;51.00;;;;;;5049196;28;19944;-62
2022/07/09 02:04:45;;;;;;;;;;;23.90;51.10;;;;;;5049851;28;19999;-62
2022/07/09 02:07:11;;;;;;;;;;;23.90;51.10;;;;;;5049711;28;19939;-62
2022/07/09 02:09:37;;;;;;;;;;;24.00;51.20;;;;;;5049973;28;19920;-62
2022/07/09 02:12:02;;;;;;;;;;;24.00;51.10;;;;;;5051904;28;19916;-62
2022/07/09 02:14:28;;;;;;;;;;;23.90;51.10;;;;;;5054000;28;19951;-62
2022/07/09 02:16:54;;;;;;;;;;;23.90;51.30;;;;;;5054760;28;20285;-62
2022/07/09 02:19:19;;;;;;;;;;;23.80;51.40;;;;;;5053526;28;19920;-62
2022/07/09 02:21:45;;;;;;;;;;;23.80;51.50;;;;;;5054889;28;19912;-62
2022/07/09 02:24:10;;;;;;;;;;;23.80;51.50;;;;;;5054772;28;19987;-62
2022/07/09 02:26:35;;;;;;;;;;;23.80;51.50;;;;;;5060662;28;19913;-62
2022/07/09 02:29:01;;;;;;;;;;;23.80;51.40;;;;;;5046822;28;19920;-62
2022/07/09 02:31:27;;;;;;;;;;;23.90;51.40;;;;;;5053610;28;19909;-62
2022/07/09 02:33:52;;;;;;;;;;;23.90;51.40;;;;;;5052278;28;20270;-62
2022/07/09 02:36:18;;;;;;;;;;;23.90;51.40;;;;;;5045097;28;20003;-62
2022/07/09 02:38:44;;;;;;;;;;;23.90;51.30;;;;;;5052693;28;19912;-62
2022/07/09 02:41:09;;;;;;;;;;;24.00;51.40;;;;;;5033671;28;19913;-62
2022/07/09 02:43:34;;;;;;;;;;;23.90;51.40;;;;;;5051735;28;19921;-62
2022/07/09 02:46:00;;;;;;;;;;;23.90;51.50;;;;;;5053034;28;19912;-62
2022/07/09 02:48:26;;;;;;;;;;;23.80;51.50;;;;;;5050389;28;19917;-62
2022/07/09 02:50:51;;;;;;;;;;;23.80;51.60;;;;;;5054531;28;20361;-62
2022/07/09 02:53:18;;;;;;;;;;;23.80;51.70;;;;;;5039806;28;19913;-62
2022/07/09 02:55:43;;;;;;;;;;;23.80;51.70;;;;;;5053443;28;19936;-62
2022/07/09 02:58:10;;;;;;;;;;;23.80;51.70;;;;;;5053545;28;20353;-62
2022/07/09 03:00:35;;;;;;;;;;;23.80;51.80;;;;;;5053543;28;20318;-62
2022/07/09 03:03:01;;;;;;;;;;;23.80;51.90;;;;;;5051680;28;19980;-62
2022/07/09 03:05:26;;;;;;;;;;;23.80;51.80;;;;;;5051373;28;20000;-62
2022/07/09 03:07:52;;;;;;;;;;;23.80;51.80;;;;;;5053729;28;19913;-62
2022/07/09 03:10:17;;;;;;;;;;;23.80;51.70;;;;;;5053985;28;19924;-62
2022/07/09 03:12:43;;;;;;;;;;;23.80;51.80;;;;;;5051972;28;19913;-62
2022/07/09 03:15:08;;;;;;;;;;;23.80;52.00;;;;;;5054118;28;19959;-62
2022/07/09 03:17:34;;;;;;;;;;;23.70;52.00;;;;;;5051752;28;20292;-62
2022/07/09 03:20:00;;;;;;;;;;;23.70;52.10;;;;;;5032930;28;19916;-62
2022/07/09 03:22:25;;;;;;;;;;;23.70;52.30;;;;;;5045573;28;19948;-62
2022/07/09 03:24:51;;;;;;;;;;;23.70;52.30;;;;;;5050527;28;19912;-62
2022/07/09 03:27:16;;;;;;;;;;;23.70;52.20;;;;;;5053070;28;19955;-62
2022/07/09 03:29:42;;;;;;;;;;;23.70;52.20;;;;;;5052130;28;19924;-62
2022/07/09 03:32:07;;;;;;;;;;;23.80;52.20;;;;;;5051311;28;19920;-62
2022/07/09 03:34:33;;;;;;;;;;;23.80;52.00;;;;;;5053109;28;19913;-62
2022/07/09 03:36:59;;;;;;;;;;;23.80;51.90;;;;;;5052100;28;19917;-62
2022/07/09 03:39:24;;;;;;;;;;;23.80;51.90;;;;;;5053385;28;19916;-62
2022/07/09 03:41:50;;;;;;;;;;;23.80;52.20;;;;;;5050986;28;19921;-62
2022/07/09 03:44:15;;;;;;;;;;;23.70;52.30;;;;;;5051546;28;20007;-62
2022/07/09 03:46:41;;;;;;;;;;;23.70;52.40;;;;;;5052128;28;20355;-63
2022/07/09 03:49:06;;;;;;;;;;;23.70;52.40;;;;;;5050434;28;19936;-62
2022/07/09 03:51:31;;;;;;;;;;;23.70;52.30;;;;;;5052262;28;19913;-62
2022/07/09 03:53:57;;;;;;;;;;;23.70;52.30;;;;;;5053231;28;19909;-62
2022/07/09 03:56:22;;;;;;;;;;;23.80;52.40;;;;;;5044514;28;19975;-62
2022/07/09 03:58:48;;;;;;;;;;;23.80;52.30;;;;;;5053047;28;19913;-62
2022/07/09 04:01:14;;;;;;;;;;;23.80;52.30;;;;;;5046804;28;19963;-62
2022/07/09 04:03:39;;;;;;;;;;;23.80;52.30;;;;;;5059585;28;20020;-62
2022/07/09 04:06:05;;;;;;;;;;;23.80;52.40;;;;;;5052449;28;19917;-62
2022/07/09 04:08:30;;;;;;;;;;;23.80;52.30;;;;;;5051456;28;19920;-62
2022/07/09 04:10:56;;;;;;;;;;;23.80;52.30;;;;;;5050514;28;20392;-62
2022/07/09 04:13:21;;;;;;;;;;;23.70;52.40;;;;;;5051901;28;19927;-62
2022/07/09 04:15:47;;;;;;;;;;;23.70;52.60;;;;;;5049936;28;19912;-62
2022/07/09 04:18:14;;;;;;;;;;;23.70;52.60;;;;;;5034007;28;19966;-62
2022/07/09 04:20:39;;;;;;;;;;;23.70;52.70;;;;;;5047209;28;19919;-62
2022/07/09 04:23:05;;;;;;;;;;;23.70;52.50;;;;;;5033065;28;19920;-62
2022/07/09 04:25:30;;;;;;;;;;;23.80;52.50;;;;;;5052067;28;19962;-62
2022/07/09 04:27:56;;;;;;;;;;;23.80;52.60;;;;;;5051205;28;19913;-62
2022/07/09 04:30:21;;;;;;;;;;;23.70;52.60;;;;;;5049672;28;19979;-62
2022/07/09 04:32:46;;;;;;;;;;;23.70;52.70;;;;;;5050923;28;19928;-62
2022/07/09 04:35:12;;;;;;;;;;;23.70;52.80;;;;;;5050928;28;19913;-62
2022/07/09 04:37:37;;;;;;;;;;;23.60;52.90;;;;;;5050594;28;19998;-61
2022/07/09 04:40:04;;;;;;;;;;;23.60;52.90;;;;;;5046949;28;19913;-62
2022/07/09 04:42:29;;;;;;;;;;;23.60;52.90;;;;;;5046195;28;19913;-62
2022/07/09 04:44:55;;;;;;;;;;;23.60;53.10;;;;;;5031562;28;19917;-62
2022/07/09 04:47:20;;;;;;;;;;;23.60;53.10;;;;;;5049989;28;19917;-62
2022/07/09 04:49:45;;;;;;;;;;;23.60;53.20;;;;;;5049568;28;19913;-62
2022/07/09 04:52:11;;;;;;;;;;;23.60;53.20;;;;;;5050876;28;20023;-62
2022/07/09 04:54:36;;;;;;;;;;;23.60;53.10;;;;;;5049654;28;19916;-63
2022/07/09 04:57:02;;;;;;;;;;;23.60;53.20;;;;;;5050836;28;20277;-62
2022/07/09 04:59:27;;;;;;;;;;;23.60;53.40;;;;;;5049359;28;19975;-62
2022/07/09 05:01:53;;;;;;;;;;;23.60;53.40;;;;;;5049123;28;20434;-61
2022/07/09 05:04:18;;;;;;;;;;;23.60;53.20;;;;;;5049983;28;19931;-62
2022/07/09 05:06:44;;;;;;;;;;;23.60;53.20;;;;;;5033455;28;19971;-62
2022/07/09 05:09:09;;;;;;;;;;;23.60;53.20;;;;;;5033390;28;20390;-62
2022/07/09 05:11:35;;;;;;;;;;;23.60;53.60;;;;;;5050558;28;20020;-62
2022/07/09 05:14:00;;;;;;;;;;;23.60;53.40;;;;;;5051891;28;19913;-62
2022/07/09 05:16:25;;;;;;;;;;;23.60;53.30;;;;;;5050676;28;19913;-62
2022/07/09 05:18:51;;;;;;;;;;;23.70;53.40;;;;;;5049345;28;19963;-62
2022/07/09 05:21:16;;;;;;;;;;;23.70;53.30;;;;;;5051776;28;19916;-62
2022/07/09 05:23:42;;;;;;;;;;;23.60;53.40;;;;;;5051048;28;20661;-62
2022/07/09 05:26:07;;;;;;;;;;;23.70;53.50;;;;;;5049763;28;20269;-62
2022/07/09 05:28:33;;;;;;;;;;;23.70;53.50;;;;;;5050236;28;20328;-62
2022/07/09 05:30:58;;;;;;;;;;;23.70;53.50;;;;;;5037948;28;19939;-62
2022/07/09 05:33:24;;;;;;;;;;;23.70;53.50;;;;;;5048223;28;19913;-62
2022/07/09 05:35:49;;;;;;;;;;;23.70;53.50;;;;;;5049116;28;19928;-62
2022/07/09 05:38:15;;;;;;;;;;;23.70;53.50;;;;;;5049338;28;20282;-62
2022/07/09 05:40:40;;;;;;;;;;;23.60;53.60;;;;;;5049705;28;20273;-62
2022/07/09 05:43:05;;;;;;;;;;;23.60;53.80;;;;;;5049075;28;20277;-62
2022/07/09 05:45:31;;;;;;;;;;;23.60;53.80;;;;;;5043590;28;19958;-62
2022/07/09 05:47:56;;;;;;;;;;;23.60;53.80;;;;;;5050761;28;19913;-62
2022/07/09 05:50:22;;;;;;;;;;;23.60;53.80;;;;;;5036662;28;20011;-62
2022/07/09 05:52:47;;;;;;;;;;;23.60;53.80;;;;;;5049671;28;20335;-62
2022/07/09 05:55:14;;;;;;;;;;;23.50;54.00;;;;;;5053322;28;20004;-62
2022/07/09 05:57:39;;;;;;;;;;;23.50;54.20;;;;;;5053181;28;20002;-62
2022/07/09 06:00:05;;;;;;;;;;;23.40;54.20;;;;;;5054247;28;20343;-62
2022/07/09 06:02:31;;;;;;;;;;;23.40;54.30;;;;;;5045578;28;19919;-62
2022/07/09 06:04:56;;;;;;;;;;;23.40;54.40;;;;;;5054955;28;19909;-62
2022/07/09 06:07:21;;;;;;;;;;;23.40;54.50;;;;;;5053556;28;19913;-62
2022/07/09 06:09:47;;;;;;;;;;;23.50;54.50;;;;;;5054530;28;19924;-62
2022/07/09 06:12:13;;;;;;;;;;;23.40;54.50;;;;;;5052245;28;19959;-62
2022/07/09 06:14:38;;;;;;;;;;;23.50;54.40;;;;;;5051795;28;19913;-62
2022/07/09 06:17:05;;;;;;;;;;;23.60;54.40;;;;;;5043759;28;19919;-62
2022/07/09 06:19:34;;;;;;;;;;;23.50;54.30;;;;;;5050618;28;19920;-62
2022/07/09 06:21:59;;;;;;;;;;;23.60;54.30;;;;;;5052285;28;20438;-62
2022/07/09 06:24:25;;;;;;;;;;;23.70;54.30;;;;;;5052929;28;20007;-62
2022/07/09 06:26:50;;;;;;;;;;;23.60;54.10;;;;;;5052327;28;20261;-62
2022/07/09 06:29:16;;;;;;;;;;;23.60;54.20;;;;;;5050684;28;19936;-62
2022/07/09 06:31:41;;;;;;;;;;;23.60;54.30;;;;;;5054340;28;20039;-62
2022/07/09 06:34:07;;;;;;;;;;;23.60;54.30;;;;;;5052915;28;19958;-62
2022/07/09 06:36:32;;;;;;;;;;;23.70;54.40;;;;;;5053963;28;19952;-62
2022/07/09 06:41:42;;;;;;;;;;;23.70;54.30;;;;;;5046216;28;20066;-62
2022/07/09 06:44:07;;;;;;;;;;;23.60;54.30;;;;;;5054555;28;19987;-62
2022/07/09 06:46:33;;;;;;;;;;;23.60;54.50;;;;;;5040911;28;19921;-62
2022/07/09 06:48:58;;;;;;;;;;;23.60;54.50;;;;;;5048860;28;19912;-62
2022/07/09 06:51:24;;;;;;;;;;;23.60;54.50;;;;;;5052608;28;19912;-62
2022/07/09 06:53:49;;;;;;;;;;;23.70;54.60;;;;;;5052828;28;19960;-62
2022/07/09 06:56:14;;;;;;;;;;;23.70;54.50;;;;;;5053851;28;19990;-62
2022/07/09 06:58:40;;;;;;;;;;;23.70;54.50;;;;;;5051856;28;19925;-62
2022/07/09 07:01:05;;;;;;;;;;;23.70;54.60;;;;;;5051801;28;19920;-62
2022/07/09 07:03:31;;;;;;;;;;;23.70;54.60;;;;;;5051233;28;19913;-62
2022/07/09 07:05:56;;;;;;;;;;;23.70;54.50;;;;;;5052370;28;20008;-62
2022/07/09 07:08:22;;;;;;;;;;;23.80;54.50;;;;;;5052729;28;19909;-62
2022/07/09 07:10:47;;;;;;;;;;;23.70;54.50;;;;;;5052540;28;19951;-61
2022/07/09 07:13:12;;;;;;;;;;;23.70;54.60;;;;;;5050986;28;19966;-62
2022/07/09 07:15:38;;;;;;;;;;;23.80;54.50;;;;;;5031930;28;19924;-62
2022/07/09 07:18:03;;;;;;;;;;;23.80;54.60;;;;;;5050814;28;19919;-62
2022/07/09 07:20:29;;;;;;;;;;;23.70;54.70;;;;;;5051553;28;19952;-62
2022/07/09 07:22:54;;;;;;;;;;;23.70;54.80;;;;;;5053007;28;19924;-62
2022/07/09 07:25:20;;;;;;;;;;;23.70;54.80;;;;;;5052676;28;20329;-62
2022/07/09 07:27:45;;;;;;;;;;;23.70;54.80;;;;;;5051129;28;19928;-62
2022/07/09 07:30:11;;;;;;;;;;;23.70;54.90;;;;;;5051373;28;20377;-62
2022/07/09 07:32:36;;;;;;;;;;;23.70;55.00;;;;;;5049567;28;20290;-62
2022/07/09 07:35:02;;;;;;;;;;;23.70;55.00;;;;;;5052927;28;19920;-63
2022/07/09 07:37:28;;;;;;;;;;;23.80;54.90;;;;;;5053170;28;19919;-62
2022/07/09 07:39:53;;;;;;;;;;;23.80;54.90;;;;;;5051854;28;19916;-62
2022/07/09 07:42:19;;;;;;;;;;;23.80;55.10;;;;;;5052822;28;19913;-62
2022/07/09 07:44:44;;;;;;;;;;;23.70;55.10;;;;;;5051565;28;19921;-62
2022/07/09 07:47:10;;;;;;;;;;;23.70;55.20;;;;;;5049635;28;19919;-62
2022/07/09 07:49:35;;;;;;;;;;;23.80;55.30;;;;;;5051100;28;19917;-62
2022/07/09 07:52:01;;;;;;;;;;;23.70;55.20;;;;;;5050252;28;19927;-62
2022/07/09 07:54:26;;;;;;;;;;;23.70;55.30;;;;;;5050517;28;20007;-62
2022/07/09 07:56:52;;;;;;;;;;;23.70;55.40;;;;;;5052886;28;20377;-62
2022/07/09 07:59:17;;;;;;;;;;;23.70;55.50;;;;;;5050000;28;20400;-62
2022/07/09 08:01:43;;;;;;;;;;;23.80;55.50;;;;;;5051905;28;20300;-62
2022/07/09 08:04:09;;;;;;;;;;;23.80;55.50;;;;;;5051929;28;19916;-62
2022/07/09 08:06:35;;;;;;;;;;;23.80;55.40;;;;;;5046485;28;19917;-62
2022/07/09 08:09:01;;;;;;;;;;;23.80;55.40;;;;;;5028525;28;19917;-62
2022/07/09 08:11:26;;;;;;;;;;;23.80;55.20;;;;;;5051486;28;19971;-62
2022/07/09 08:13:52;;;;;;;;;;;23.80;55.30;;;;;;5046509;28;19921;-62
2022/07/09 08:16:18;;;;;;;;;;;23.80;55.40;;;;;;5041621;28;19909;-62
2022/07/09 08:18:44;;;;;;;;;;;23.80;55.30;;;;;;5048615;28;19917;-62
2022/07/09 08:21:09;;;;;;;;;;;23.80;55.20;;;;;;5052882;28;19920;-62
2022/07/09 08:23:51;;;;;;;;;;;23.90;55.40;;;;;;5049140;28;19967;-62
2022/07/09 08:26:19;;;;;;;;;;;23.80;55.20;;;;;;5057492;28;19996;-62
2022/07/09 08:28:45;;;;;;;;;;;23.90;55.40;;;;;;5050629;28;19917;-62
2022/07/09 08:31:10;;;;;;;;;;;23.90;55.40;;;;;;5051002;28;19913;-62
2022/07/09 08:33:37;;;;;;;;;;;23.90;55.40;;;;;;5041734;28;20004;-62
2022/07/09 08:36:03;;;;;;;;;;;23.80;55.40;;;;;;5047393;28;20442;-62
2022/07/09 08:38:28;;;;;;;;;;;23.90;55.50;;;;;;5049829;28;19924;-62
2022/07/09 08:40:54;;;;;;;;;;;23.90;55.40;;;;;;5048479;28;19917;-62
2022/07/09 08:43:19;;;;;;;;;;;23.90;55.40;;;;;;5046997;28;19920;-62
2022/07/09 08:45:45;;;;;;;;;;;23.90;55.40;;;;;;5048865;28;19928;-62
2022/07/09 08:48:10;;;;;;;;;;;23.80;55.50;;;;;;5045238;28;19971;-62
2022/07/09 08:50:36;;;;;;;;;;;23.80;55.50;;;;;;5031446;28;20652;-62
2022/07/09 08:53:01;;;;;;;;;;;23.90;55.60;;;;;;5047679;28;20364;-62
2022/07/09 08:55:26;;;;;;;;;;;23.90;55.80;;;;;;5030118;28;20368;-62
2022/07/09 08:57:52;;;;;;;;;;;23.80;55.70;;;;;;5045487;28;20345;-62
2022/07/09 09:00:17;;;;;;;;;;;23.80;55.70;;;;;;5047807;28;20368;-62
2022/07/09 09:02:43;;;;;;;;;;;23.80;55.80;;;;;;5049064;28;19915;-62
2022/07/09 09:05:12;;;;;;;;;;;23.80;55.80;;;;;;5046133;28;19913;-62
2022/07/09 09:07:37;;;;;;;;;;;23.80;55.80;;;;;;5051073;28;19920;-62
2022/07/09 09:10:03;;;;;;;;;;;23.80;55.70;;;;;;5048331;28;19921;-62
2022/07/09 09:12:29;;;;;;;;;;;23.80;55.70;;;;;;5065199;28;19908;-62
2022/07/09 09:14:54;;;;;;;;;;;23.90;55.80;;;;;;5049847;28;19913;-62
2022/07/09 09:17:19;;;;;;;;;;;23.80;55.80;;;;;;5049837;28;20404;-62
2022/07/09 09:19:45;;;;;;;;;;;23.80;55.80;;;;;;5049450;28;20408;-62
2022/07/09 09:22:13;;;;;;;;;;;23.90;55.80;;;;;;5049495;28;19913;-62
2022/07/09 09:24:39;;;;;;;;;;;23.90;55.90;;;;;;5040492;28;19992;-62
2022/07/09 09:27:05;;;;;;;;;;;23.90;55.70;;;;;;5049937;28;20048;-62
2022/07/09 09:29:30;;;;;;;;;;;23.90;55.80;;;;;;5043340;28;19909;-62
2022/07/09 09:31:56;;;;;;;;;;;23.80;55.90;;;;;;5034661;28;19944;-62
2022/07/09 09:34:21;;;;;;;;;;;23.90;55.90;;;;;;5049166;28;20003;-62
2022/07/09 09:36:47;;;;;;;;;;;23.90;55.90;;;;;;5048824;28;19963;-62
2022/07/09 09:39:15;;;;;;;;;;;23.90;55.90;;;;;;5049666;28;20107;-62
2022/07/09 09:41:42;;;;;;;;;;;23.90;56.10;;;;;;5050943;28;19909;-62
2022/07/09 09:44:09;;;;;;;;;;;23.90;56.10;;;;;;5048313;28;19908;-62
2022/07/09 09:46:38;;;;;;;;;;;23.90;56.10;;;;;;5051061;28;19920;-62
2022/07/09 09:49:07;;;;;;;;;;;23.90;56.20;;;;;;5048658;28;19982;-62
2022/07/09 09:51:47;;;;;;;;;;;23.90;56.50;;;;;;5031454;28;19917;-63
2022/07/09 09:54:13;;;;;;;;;;;23.90;56.50;;;;;;5027831;28;20312;-62
2022/07/09 09:56:39;;;;;;;;;;;23.90;56.10;;;;;;5049013;28;20011;-62
2022/07/09 09:59:04;;;;;;;;;;;24.00;56.20;;;;;;5047193;28;20368;-62
2022/07/09 10:01:30;;;;;;;;;;;23.90;56.20;;;;;;5048169;28;19916;-62
2022/07/09 10:03:55;;;;;;;;;;;23.80;56.40;;;;;;5049502;28;19925;-62
2022/07/09 10:06:21;;;;;;;;;;;23.80;56.60;;;;;;5048655;28;20452;-62
2022/07/09 10:08:46;;;;;;;;;;;23.80;57.50;;;;;;5027075;28;20012;-62
2022/07/09 10:11:12;;;;;;;;;;;23.70;56.80;;;;;;5047904;28;19924;-62
2022/07/09 10:13:38;;;;;;;;;;;23.70;56.90;;;;;;5047722;28;19920;-63
2022/07/09 10:16:03;;;;;;;;;;;23.70;56.90;;;;;;5050315;28;19916;-63
2022/07/09 10:18:29;;;;;;;;;;;23.70;56.70;;;;;;5049810;28;19966;-63
2022/07/09 10:20:57;;;;;;;;;;;23.70;56.70;;;;;;5048306;28;19923;-63
2022/07/09 10:23:23;;;;;;;;;;;23.80;57.50;;;;;;5049265;28;19916;-63
2022/07/09 10:25:52;;;;;;;;;;;23.70;56.70;;;;;;5044451;28;20280;-63
2022/07/09 10:28:18;;;;;;;;;;;23.70;56.70;;;;;;5049129;28;20059;-63
2022/07/09 10:30:44;;;;;;;;;;;23.70;56.50;;;;;;5049482;28;19909;-63
2022/07/09 10:33:22;;;;;;;;;;;23.80;56.50;;;;;;5044911;28;19917;-63
2022/07/09 10:35:49;;;;;;;;;;;23.80;56.40;;;;;;5030686;28;19920;-63
2022/07/09 10:38:15;;;;;;;;;;;23.80;56.70;;;;;;5048582;28;20692;-63
2022/07/09 10:40:42;;;;;;;;;;;23.80;56.10;;;;;;5050374;28;19917;-63
2022/07/09 10:43:07;;;;;;;;;;;23.80;56.10;;;;;;5050500;28;20281;-62
2022/07/09 10:45:43;;;;;;;;;;;23.80;56.10;;;;;;5050973;28;19913;-63
2022/07/09 10:48:09;;;;;;;;;;;23.80;55.80;;;;;;5051513;28;19913;-62
2022/07/09 10:50:41;;;;;;;;;;;23.80;56.00;;;;;;5050819;28;20011;-63
2022/07/09 10:53:07;;;;;;;;;;;23.80;54.90;;;;;;5051110;28;19928;-62
2022/07/09 10:55:32;;;;;;;;;;;23.80;55.20;;;;;;5051058;28;19916;-62
2022/07/09 10:57:58;;;;;;;;;;;23.80;56.00;;;;;;5052809;28;19917;-62
2022/07/09 11:00:24;;;;;;;;;;;23.80;55.40;;;;;;5049586;28;19909;-63
2022/07/09 11:02:53;;;;;;;;;;;23.90;55.30;;;;;;5041086;28;19917;-63
2022/07/09 11:05:19;;;;;;;;;;;24.00;55.00;;;;;;5053614;28;19913;-62
2022/07/09 11:07:53;;;;;;;;;;;24.10;54.90;;;;;;5050979;28;19917;-62
2022/07/09 11:10:20;;;;;;;;;;;24.20;54.80;;;;;;5053359;28;19928;-62
2022/07/09 11:12:48;;;;;;;;;;;24.20;54.50;;;;;;5053930;28;19917;-62
2022/07/09 11:15:19;;;;;;;;;;;24.00;54.50;;;;;;5053914;28;20589;-62
2022/07/09 11:18:01;;;;;;;;;;;24.00;55.20;;;;;;5051928;28;19943;-62
2022/07/09 11:20:27;;;;;;;;;;;24.00;54.90;;;;;;5054150;28;19913;-62
2022/07/09 11:22:56;;;;;;;;;;;23.90;55.00;;;;;;5052707;28;19909;-62
2022/07/09 11:25:21;;;;;;;;;;;24.00;55.40;;;;;;5053682;28;19908;-62
2022/07/09 11:27:46;;;;;;;;;;;23.90;54.80;;;;;;5053711;28;19958;-62
2022/07/09 11:30:15;;;;;;;;;;;23.80;54.90;;;;;;5040186;28;20357;-62
2022/07/09 11:32:41;;;;;;;;;;;23.80;55.00;;;;;;5045348;28;19924;-62
2022/07/09 11:35:07;;;;;;;;;;;23.70;55.40;;;;;;5048108;28;19913;-63
2022/07/09 11:37:33;;;;;;;;;;;23.70;55.30;;;;;;5051852;28;19921;-63
2022/07/09 11:39:58;;;;;;;;;;;23.70;55.70;;;;;;5038788;28;19958;-62
2022/07/09 11:42:24;;;;;;;;;;;23.70;54.90;;;;;;5049060;28;19954;-63
2022/07/09 11:44:53;;;;;;;;;;;23.70;55.00;;;;;;5051180;28;19917;-62
2022/07/09 11:47:22;;;;;;;;;;;23.80;54.70;;;;;;5051604;28;19909;-62
2022/07/09 11:49:50;;;;;;;;;;;23.80;54.40;;;;;;5053655;28;19954;-63
2022/07/09 11:52:17;;;;;;;;;;;23.90;54.40;;;;;;5051968;28;19917;-63
2022/07/09 11:54:53;;;;;;;;;;;23.90;54.30;;;;;;5053371;28;19916;-62
2022/07/09 11:57:19;;;;;;;;;;;23.80;54.30;;;;;;5051966;28;19916;-62
2022/07/09 11:59:44;;;;;;;;;;;23.80;54.90;;;;;;5046320;28;19986;-63
2022/07/09 12:02:10;;;;;;;;;;;23.80;54.90;;;;;;5038079;28;19924;-63
2022/07/09 12:04:35;;;;;;;;;;;23.80;54.80;;;;;;5042543;28;19917;-62
2022/07/09 12:07:01;;;;;;;;;;;24.00;54.70;;;;;;5040394;28;19908;-63
2022/07/09 12:09:27;;;;;;;;;;;24.00;54.60;;;;;;5056018;28;19908;-63
2022/07/09 12:11:52;;;;;;;;;;;24.10;54.40;;;;;;5051886;28;19920;-62
2022/07/09 12:14:18;;;;;;;;;;;24.20;54.30;;;;;;5033606;28;19920;-62
2022/07/09 12:16:43;;;;;;;;;;;24.20;54.10;;;;;;5050790;28;19917;-63
2022/07/09 12:19:09;;;;;;;;;;;24.20;54.10;;;;;;5047495;28;19939;-61
2022/07/09 12:21:34;;;;;;;;;;;24.20;53.90;;;;;;5047137;28;19963;-62
2022/07/09 12:24:00;;;;;;;;;;;24.20;53.90;;;;;;5048550;28;19924;-62
2022/07/09 12:26:26;;;;;;;;;;;24.20;54.00;;;;;;5047575;28;19971;-63
2022/07/09 12:28:51;;;;;;;;;;;24.20;54.00;;;;;;5049285;28;19916;-63
2022/07/09 12:31:17;;;;;;;;;;;24.30;54.20;;;;;;5051266;28;19909;-63
2022/07/09 12:33:42;;;;;;;;;;;24.30;54.00;;;;;;5047944;28;19959;-63
2022/07/09 12:36:08;;;;;;;;;;;24.40;53.90;;;;;;5049320;28;19913;-64
2022/07/09 12:38:33;;;;;;;;;;;24.30;53.80;;;;;;5050212;28;19924;-64
2022/07/09 12:40:59;;;;;;;;;;;24.40;53.70;;;;;;5047154;28;20382;-64
2022/07/09 12:43:24;;;;;;;;;;;24.30;53.70;;;;;;5050300;28;19916;-64
2022/07/09 12:45:49;;;;;;;;;;;24.30;53.50;;;;;;5049175;28;19925;-64
2022/07/09 12:48:15;;;;;;;;;;;24.30;53.30;;;;;;5049348;28;19927;-63
2022/07/09 12:50:40;;;;;;;;;;;24.30;53.30;;;;;;5049062;28;20003;-62
2022/07/09 12:53:06;;;;;;;;;;;24.30;53.50;;;;;;5046885;28;19961;-62
2022/07/09 12:55:31;;;;;;;;;;;24.30;53.30;;;;;;5049558;28;20373;-63
2022/07/09 12:57:57;;;;;;;;;;;24.30;53.00;;;;;;5051671;28;19917;-62
2022/07/09 13:00:22;;;;;;;;;;;24.30;53.20;;;;;;5050942;28;19967;-62
2022/07/09 13:02:48;;;;;;;;;;;24.30;53.50;;;;;;5050086;28;19909;-62
2022/07/09 13:05:16;;;;;;;;;;;24.30;53.50;;;;;;5052412;28;19909;-62
2022/07/09 13:07:42;;;;;;;;;;;24.30;53.60;;;;;;5051460;28;19909;-62
2022/07/09 13:10:08;;;;;;;;;;;24.30;53.70;;;;;;5051760;28;19928;-62
2022/07/09 13:12:33;;;;;;;;;;;24.30;53.80;;;;;;5050583;28;20004;-62
2022/07/09 13:14:59;;;;;;;;;;;24.30;53.60;;;;;;5052135;28;20285;-62
2022/07/09 13:17:24;;;;;;;;;;;24.30;53.60;;;;;;5049667;28;20286;-62
2022/07/09 13:19:52;;;;;;;;;;;24.30;53.60;;;;;;5050325;28;19928;-62
2022/07/09 13:22:17;;;;;;;;;;;24.30;53.50;;;;;;5050260;28;20017;-62
2022/07/09 13:24:43;;;;;;;;;;;24.40;53.50;;;;;;5050411;28;20000;-63
2022/07/09 13:27:09;;;;;;;;;;;24.40;53.40;;;;;;5051572;28;20403;-63
2022/07/09 13:29:35;;;;;;;;;;;24.40;53.40;;;;;;5034086;28;19933;-62
2022/07/09 13:32:00;;;;;;;;;;;24.40;53.40;;;;;;5046646;28;19915;-62
2022/07/09 13:34:26;;;;;;;;;;;24.50;53.50;;;;;;5039503;28;19935;-62
2022/07/09 13:36:51;;;;;;;;;;;24.40;53.30;;;;;;5050404;28;19986;-62
2022/07/09 13:39:17;;;;;;;;;;;24.40;53.30;;;;;;5050047;28;19913;-62
2022/07/09 13:41:42;;;;;;;;;;;24.50;53.30;;;;;;5050311;28;20365;-62
2022/07/09 13:44:07;;;;;;;;;;;24.50;53.20;;;;;;5050292;28;20395;-62
2022/07/09 13:46:33;;;;;;;;;;;24.50;53.20;;;;;;5050359;28;19909;-63
2022/07/09 13:48:59;;;;;;;;;;;24.50;53.00;;;;;;5049497;28;19952;-62
2022/07/09 13:51:24;;;;;;;;;;;24.50;52.90;;;;;;5051428;28;20446;-62
2022/07/09 13:53:50;;;;;;;;;;;24.50;52.90;;;;;;5049661;28;19920;-62
2022/07/09 13:56:15;;;;;;;;;;;24.60;52.80;;;;;;5051514;28;19975;-63
2022/07/09 13:58:42;;;;;;;;;;;24.60;52.60;;;;;;5049887;28;19942;-62
2022/07/09 14:01:07;;;;;;;;;;;24.60;52.50;;;;;;5051478;28;19916;-62
2022/07/09 14:03:33;;;;;;;;;;;24.60;52.30;;;;;;5049573;28;19909;-63
2022/07/09 14:05:58;;;;;;;;;;;24.70;52.40;;;;;;5050217;28;19999;-62
2022/07/09 14:08:27;;;;;;;;;;;24.60;52.30;;;;;;5051514;28;19909;-62
2022/07/09 14:10:57;;;;;;;;;;;24.60;52.30;;;;;;5054880;28;20565;-62